createdAt,value
2023-04-27T00:00:11.863Z,93554.03
2023-04-27T00:05:16.622Z,93547.88
2023-04-27T00:10:19.958Z,93538.66
2023-04-27T00:15:24.115Z,93539.91
2023-04-27T00:20:27.802Z,93533.97
2023-04-27T00:25:31.036Z,93535.97
2023-04-27T00:30:34.066Z,93538.63
2023-04-27T00:35:37.205Z,93539.72
2023-04-27T00:40:41.067Z,93543.81
2023-04-27T00:45:45.946Z,93549.13
2023-04-27T00:50:49.583Z,93541.06
2023-04-27T00:55:52.655Z,93543.22
2023-04-27T01:00:57.210Z,93548.16
2023-04-27T01:06:01.986Z,93546.66
2023-04-27T01:11:05.810Z,93541.16
2023-04-27T01:16:09.402Z,93537.44
2023-04-27T01:21:16.141Z,93547.88
2023-04-27T01:26:20.142Z,93537.16
2023-04-27T01:31:25.062Z,93544.78
2023-04-27T01:36:32.633Z,93541.94
2023-04-27T01:41:39.407Z,93553.16
2023-04-27T01:46:43.368Z,93550.28
2023-04-27T01:51:47.243Z,93552.00
2023-04-27T01:56:53.469Z,93558.91
2023-04-27T02:01:56.992Z,93563.75
2023-04-27T02:07:01.112Z,93562.53
2023-04-27T02:12:06.454Z,93558.41
2023-04-27T02:17:09.893Z,93568.69
2023-04-27T02:22:14.027Z,93577.97
2023-04-27T02:27:17.234Z,93576.66
2023-04-27T02:32:21.311Z,93579.53
2023-04-27T02:37:24.466Z,93584.44
2023-04-27T02:42:27.596Z,93587.16
2023-04-27T02:47:31.793Z,93578.91
2023-04-27T02:52:36.006Z,93575.59
2023-04-27T02:57:39.519Z,93568.25
2023-04-27T03:02:43.833Z,93583.22
2023-04-27T03:07:47.350Z,93583.38
2023-04-27T03:12:51.226Z,93584.50
2023-04-27T03:17:55.169Z,93586.78
2023-04-27T03:22:59.144Z,93592.22
2023-04-27T03:28:02.752Z,93581.00
2023-04-27T03:33:06.100Z,93581.88
2023-04-27T03:38:09.530Z,93577.53
2023-04-27T03:43:12.573Z,93581.81
2023-04-27T03:48:16.849Z,93579.09
2023-04-27T03:53:21.063Z,93579.28
2023-04-27T03:58:25.724Z,93574.97
2023-04-27T04:03:50.998Z,93583.22
2023-04-27T04:08:55.096Z,93588.69
2023-04-27T04:13:59.224Z,93595.78
2023-04-27T04:19:03.194Z,93596.56
2023-04-27T04:24:08.030Z,93609.63
2023-04-27T04:29:11.595Z,93624.41
2023-04-27T04:34:16.118Z,93636.31
2023-04-27T04:39:23.298Z,93640.06
2023-04-27T04:44:27.072Z,93635.84
2023-04-27T04:49:30.714Z,93620.34
2023-04-27T04:54:34.724Z,93633.75
2023-04-27T04:59:39.006Z,93629.03
2023-04-27T05:04:42.980Z,93617.16
2023-04-27T05:09:46.724Z,93639.78
2023-04-27T05:14:51.997Z,93642.66
2023-04-27T05:19:55.616Z,93647.97
2023-04-27T05:24:59.452Z,93638.22
2023-04-27T05:30:02.856Z,93634.06
2023-04-27T05:35:06.313Z,93638.28
2023-04-27T05:40:10.048Z,93629.75
2023-04-27T05:45:13.944Z,93639.91
2023-04-27T05:50:17.581Z,93647.19
2023-04-27T05:55:21.942Z,93660.25
2023-04-27T06:00:25.706Z,93660.69
2023-04-27T06:05:29.149Z,93656.00
2023-04-27T06:10:34.600Z,93666.22
2023-04-27T06:15:38.027Z,93653.69
2023-04-27T06:20:43.197Z,93649.03
2023-04-27T06:25:46.958Z,93646.31
2023-04-27T06:30:50.606Z,93637.81
2023-04-27T06:35:54.349Z,93630.03
2023-04-27T06:40:58.264Z,93641.81
2023-04-27T06:46:02.029Z,93646.69
2023-04-27T06:51:05.968Z,93634.06
2023-04-27T06:56:12.105Z,93620.63
2023-04-27T07:01:16.260Z,93634.50
2023-04-27T07:06:19.881Z,93642.25
2023-04-27T07:11:23.976Z,93653.25
2023-04-27T07:16:28.637Z,93645.59
2023-04-27T07:21:32.087Z,93636.44
2023-04-27T07:26:35.314Z,93656.56
2023-04-27T07:31:38.554Z,93651.19
2023-04-27T07:36:42.200Z,93656.72
2023-04-27T07:41:45.660Z,93654.22
2023-04-27T07:46:49.659Z,93661.75
2023-04-27T07:51:53.155Z,93670.56
2023-04-27T07:56:57.583Z,93661.81
2023-04-27T08:02:17.704Z,93675.41
2023-04-27T08:07:23.414Z,93678.38
2023-04-27T08:12:26.874Z,93675.66
2023-04-27T08:17:31.375Z,93680.53
2023-04-27T08:22:35.111Z,93664.22
2023-04-27T08:27:41.311Z,93689.53
2023-04-27T08:32:45.357Z,93692.81
2023-04-27T08:37:48.891Z,93682.31
2023-04-27T08:42:57.069Z,93692.41
2023-04-27T08:48:01.801Z,93698.16
2023-04-27T08:53:05.974Z,93702.00
2023-04-27T08:58:09.928Z,93698.38
2023-04-27T09:03:23.708Z,93703.50
2023-04-27T09:08:26.912Z,93696.28
2023-04-27T09:13:37.002Z,93704.94
2023-04-27T09:18:43.915Z,93711.31
2023-04-27T09:23:47.834Z,93715.94
2023-04-27T09:28:53.148Z,93714.88
2023-04-27T09:33:57.019Z,93716.78
2023-04-27T09:39:05.531Z,93721.59
2023-04-27T09:44:09.012Z,93715.75
2023-04-27T09:49:14.397Z,93707.81
2023-04-27T09:54:18.387Z,93712.88
2023-04-27T09:59:46.200Z,93712.06
2023-04-27T10:04:49.162Z,93704.25
2023-04-27T10:09:52.848Z,93701.53
2023-04-27T10:14:58.864Z,93699.25
2023-04-27T10:20:04.900Z,93704.72
2023-04-27T10:25:17.625Z,93703.16
2023-04-27T10:30:23.024Z,93687.53
2023-04-27T10:35:41.093Z,93692.28
2023-04-27T10:41:01.825Z,93692.41
2023-04-27T10:46:09.234Z,93691.25
2023-04-27T10:51:16.815Z,93685.00
2023-04-27T10:56:20.944Z,93691.34
2023-04-27T11:01:28.242Z,93674.47
2023-04-27T11:06:35.170Z,93687.09
2023-04-27T11:11:38.209Z,93676.06
2023-04-27T11:16:47.493Z,93684.50
2023-04-27T11:21:51.101Z,93695.13
2023-04-27T11:26:55.141Z,93698.00
2023-04-27T11:31:58.247Z,93696.81
2023-04-27T11:37:17.333Z,93695.47
2023-04-27T11:42:25.179Z,93689.09
2023-04-27T11:47:31.398Z,93683.50
2023-04-27T11:52:40.252Z,93684.25
2023-04-27T11:57:43.976Z,93683.28
2023-04-27T12:02:47.085Z,93682.50
2023-04-27T12:07:50.793Z,93676.78
2023-04-27T12:12:55.211Z,93689.19
2023-04-27T12:17:58.765Z,93685.63
2023-04-27T12:23:02.577Z,93691.34
2023-04-27T12:28:06.690Z,93688.94
2023-04-27T12:33:11.447Z,93682.09
2023-04-27T12:38:14.805Z,93694.69
2023-04-27T12:43:18.545Z,93679.78
2023-04-27T12:48:28.812Z,93681.50
2023-04-27T12:53:33.116Z,93684.44
2023-04-27T12:58:36.779Z,93680.28
2023-04-27T13:03:40.391Z,93684.44
2023-04-27T13:08:44.174Z,93676.66
2023-04-27T13:13:48.150Z,93683.03
2023-04-27T13:18:52.566Z,93678.50
2023-04-27T13:23:59.581Z,93669.03
2023-04-27T13:29:05.049Z,93668.59
2023-04-27T13:34:08.997Z,93666.50
2023-04-27T13:39:13.269Z,93661.34
2023-04-27T13:44:17.322Z,93660.13
2023-04-27T13:49:21.536Z,93655.28
2023-04-27T13:54:25.496Z,93659.19
2023-04-27T13:59:29.361Z,93651.38
2023-04-27T14:04:32.572Z,93648.75
2023-04-27T14:09:36.644Z,93659.00
2023-04-27T14:14:40.706Z,93644.59
2023-04-27T14:19:44.101Z,93654.00
2023-04-27T14:24:47.559Z,93639.16
2023-04-27T14:29:51.707Z,93648.78
2023-04-27T14:34:55.235Z,93646.31
2023-04-27T14:39:58.972Z,93647.25
2023-04-27T14:45:02.484Z,93655.84
2023-04-27T14:50:07.178Z,93671.63
2023-04-27T14:55:12.184Z,93668.56
2023-04-27T15:00:16.062Z,93674.16
2023-04-27T15:05:19.384Z,93668.91
2023-04-27T15:10:23.070Z,93673.91
2023-04-27T15:15:26.510Z,93677.03
2023-04-27T15:20:29.968Z,93681.28
2023-04-27T15:25:33.613Z,93679.72
2023-04-27T15:30:37.112Z,93677.44
2023-04-27T15:35:41.030Z,93675.75
2023-04-27T15:40:44.386Z,93686.13
2023-04-27T15:45:48.267Z,93693.13
2023-04-27T15:50:52.586Z,93688.69
2023-04-27T15:55:56.499Z,93693.00
2023-04-27T16:01:00.853Z,93693.06
2023-04-27T16:06:04.480Z,93694.50
2023-04-27T16:11:08.168Z,93700.25
2023-04-27T16:16:11.833Z,93698.84
2023-04-27T16:21:15.434Z,93684.53
2023-04-27T16:26:19.303Z,93689.56
2023-04-27T16:31:23.307Z,93691.81
2023-04-27T16:36:28.130Z,93697.09
2023-04-27T16:41:31.565Z,93699.75
2023-04-27T16:46:35.157Z,93697.72
2023-04-27T16:51:39.246Z,93712.63
2023-04-27T16:56:43.621Z,93711.97
2023-04-27T17:01:47.332Z,93718.69
2023-04-27T17:06:51.349Z,93719.44
2023-04-27T17:11:55.845Z,93734.59
2023-04-27T17:17:03.941Z,93737.53
2023-04-27T17:22:10.960Z,93741.97
2023-04-27T17:27:15.180Z,93740.09
2023-04-27T17:32:18.986Z,93755.06
2023-04-27T17:37:23.131Z,93758.66
2023-04-27T17:42:26.804Z,93766.47
2023-04-27T17:47:31.204Z,93767.69
2023-04-27T17:52:34.701Z,93769.66
2023-04-27T17:57:38.683Z,93779.44
2023-04-27T18:02:42.024Z,93781.41
2023-04-27T18:07:47.088Z,93775.13
2023-04-27T18:12:50.553Z,93781.78
2023-04-27T18:17:53.731Z,93792.00
2023-04-27T18:22:57.482Z,93807.66
2023-04-27T18:28:01.562Z,93783.75
2023-04-27T18:33:05.876Z,93796.69
2023-04-27T18:38:09.872Z,93812.34
2023-04-27T18:43:13.294Z,93815.50
2023-04-27T18:48:16.244Z,93815.09
2023-04-27T18:53:19.780Z,93811.97
2023-04-27T18:58:22.756Z,93831.97
2023-04-27T19:03:25.812Z,93843.34
2023-04-27T19:08:29.243Z,93840.56
2023-04-27T19:13:32.302Z,93840.16
2023-04-27T19:18:36.503Z,93841.28
2023-04-27T19:23:40.168Z,93845.91
2023-04-27T19:28:44.308Z,93863.84
2023-04-27T19:38:58.336Z,93869.59
2023-04-27T19:44:02.353Z,93868.50
2023-04-27T19:49:06.787Z,93879.84
2023-04-27T19:54:10.296Z,93879.78
2023-04-27T19:59:13.325Z,93881.19
2023-04-27T20:04:18.711Z,93884.66
2023-04-27T20:09:21.948Z,93875.47
2023-04-27T20:14:25.332Z,93887.59
2023-04-27T20:19:28.723Z,93890.25
2023-04-27T20:24:31.689Z,93896.47
2023-04-27T20:29:34.854Z,93903.16
2023-04-27T20:34:37.814Z,93895.47
2023-04-27T20:39:41.714Z,93905.09
2023-04-27T20:44:48.703Z,93893.28
2023-04-27T20:49:51.659Z,93904.09
2023-04-27T20:54:54.506Z,93903.16
2023-04-27T20:59:57.348Z,93897.28
2023-04-27T21:05:00.548Z,93901.38
2023-04-27T21:10:06.491Z,93895.78
2023-04-27T21:15:09.850Z,93909.28
2023-04-27T21:20:13.110Z,93915.81
2023-04-27T21:25:16.600Z,93918.41
2023-04-27T21:30:19.809Z,93924.94
2023-04-27T21:35:23.182Z,93920.31
2023-04-27T21:40:26.356Z,93916.16
2023-04-27T21:45:29.363Z,93912.88
2023-04-27T21:50:32.374Z,93925.66
2023-04-27T21:55:35.271Z,93916.81
2023-04-27T22:00:39.052Z,93924.06
2023-04-27T22:05:42.155Z,93934.09
2023-04-27T22:10:45.555Z,93927.28
2023-04-27T22:15:49.054Z,93925.84
2023-04-27T22:20:52.147Z,93920.34
2023-04-27T22:25:55.220Z,93927.25
2023-04-27T22:30:58.273Z,93921.53
2023-04-27T22:36:01.472Z,93923.06
2023-04-27T22:41:04.656Z,93928.50
2023-04-27T22:46:07.581Z,93919.81
2023-04-27T22:51:11.064Z,93925.84
2023-04-27T22:56:14.196Z,93932.19
2023-04-27T23:01:17.434Z,93930.22
2023-04-27T23:06:20.594Z,93926.56
2023-04-27T23:11:24.430Z,93928.03
2023-04-27T23:16:27.363Z,93928.09
2023-04-27T23:21:30.282Z,93929.16
2023-04-27T23:26:33.297Z,93928.47
2023-04-27T23:31:36.314Z,93933.63
2023-04-27T23:36:39.826Z,93928.72
2023-04-27T23:41:42.653Z,93921.63
2023-04-27T23:46:45.565Z,93933.16
2023-04-27T23:51:50.360Z,93933.47
2023-04-27T23:56:53.479Z,93916.19
